Korsika — LZG2359 — position and weather

sailwx.info

Track history (hours):
 
Tides and Currents Weather Stations Pressure Air Temp Water Temp Dewpoint Dewpoint Depression Visibility Wind Speed Wind Dir Waves Ship Positions

Korsika

Last reported at 2017-Nov-19 17:01 UTC. Time now 2017-Nov-22 13:09 UTC.
Position N 48°11' E 016°28'.

Length 80 m; draft 2.3 m.

Type: Ship. MMSI: 207072359.

Date/timePositionNaut miles runAvg speedWind from/ knotsBaromVisibWave heightAir tempDewpointWater temp
2017-Nov-19 17:01N 48°11' E 016°28'0 6.5
2017-Nov-19 17:01N 48°11' E 016°28'13 2.4
2017-Nov-19 11:18N 48°07' E 016°47'3 2.5
2017-Nov-19 10:16N 48°07' E 016°51'1 3.0
2017-Nov-19 09:55N 48°08' E 016°52'1 2.5
2017-Nov-19 09:31N 48°08' E 016°54'1 2.6
2017-Nov-19 08:59N 48°09' E 016°55'1 2.6
2017-Nov-19 08:30N 48°10' E 016°57'1 2.6
2017-Nov-19 08:01N 48°10' E 016°58'1 2.5
2017-Nov-19 07:30N 48°10' E 016°60'1 2.9
2017-Nov-19 07:01N 48°09' E 017°01'1 2.8
2017-Nov-19 06:30N 48°09' E 017°03'2 3.1
2017-Nov-19 06:00N 48°08' E 017°06'2 3.6
2017-Nov-19 05:31N 48°08' E 017°08'2 3.7
2017-Nov-19 05:00N 48°06' E 017°08'2 3.1
2017-Nov-19 04:30N 48°05' E 017°09'0 0.0
2017-Nov-19 04:01N 48°05' E 017°09'0 0.0
2017-Nov-19 03:30N 48°05' E 017°09'0 0.0
2017-Nov-19 03:00N 48°05' E 017°09'0 0.0
2017-Nov-19 02:30N 48°05' E 017°09'0 0.0
2017-Nov-19 02:01N 48°05' E 017°09'0 0.0
2017-Nov-19 01:31N 48°05' E 017°09'0 0.0
2017-Nov-19 01:00N 48°05' E 017°09'0 0.0
2017-Nov-19 00:30N 48°05' E 017°09'0 0.0
2017-Nov-19 00:01N 48°05' E 017°09'0 0.0
2017-Nov-18 23:31N 48°05' E 017°09'0 0.0
2017-Nov-18 23:01N 48°05' E 017°09'0 0.0
2017-Nov-18 22:30N 48°05' E 017°09'0 0.0
2017-Nov-18 22:00N 48°05' E 017°09'0 0.0
2017-Nov-18 21:30N 48°05' E 017°09'0 0.0
2017-Nov-18 21:01N 48°05' E 017°09'0 0.0
2017-Nov-18 20:30N 48°05' E 017°09'0 0.0
2017-Nov-18 20:01N 48°05' E 017°09'0 0.0
2017-Nov-18 19:31N 48°05' E 017°09'0 0.0
2017-Nov-18 19:00N 48°05' E 017°09'0 0.2
2017-Nov-18 18:31N 48°05' E 017°09'3 5.9
2017-Nov-18 18:00N 48°03' E 017°12'3 6.5
2017-Nov-18 17:30N 48°01' E 017°16'3 6.9
2017-Nov-18 17:00N 47°60' E 017°21'4 7.3
2017-Nov-18 16:30N 47°57' E 017°25'4 7.3
2017-Nov-18 16:01N 47°55' E 017°29'3 5.7
2017-Nov-18 15:31N 47°53' E 017°32'0 0.3
2017-Nov-18 14:58N 47°53' E 017°33'2 3.4
2017-Nov-18 14:31N 47°52' E 017°34'1 1.6
2017-Nov-18 14:01N 47°51' E 017°35'2 4.2
2017-Nov-18 13:30N 47°49' E 017°37'3 4.6
2017-Nov-18 12:50N 47°47' E 017°40'59 2.1
2017-Nov-17 08:48N 47°37' E 019°06'2 5.4
2017-Nov-17 08:30N 47°35' E 019°05'2 4.9
2017-Nov-17 08:00N 47°33' E 019°04'2 4.5
2017-Nov-17 07:30N 47°31' E 019°03'2 4.2
2017-Nov-17 07:00N 47°29' E 019°04'2 3.8
2017-Nov-17 06:30N 47°27' E 019°03'2 4.0
2017-Nov-17 06:00N 47°25' E 019°03'2 4.1
2017-Nov-17 05:31N 47°23' E 019°01'2 1.5
2017-Nov-17 04:29N 47°23' E 018°59'0 0.0
2017-Nov-16 16:30N 47°23' E 018°59'0 0.2
2017-Nov-16 15:55N 47°23' E 018°59'2 4.3
2017-Nov-16 15:27N 47°21' E 018°57'2 4.0
2017-Nov-16 15:01N 47°20' E 018°57'3 4.2
2017-Nov-16 14:14N 47°17' E 018°55'  
2017-Nov-14 03:30N 46°00' E 018°41'  
2017-Nov-10 08:43N 47°19' E 018°56'3 9.1
2017-Nov-10 08:25N 47°21' E 018°57'4 8.6
2017-Nov-10 08:01N 47°23' E 019°01'3 6.9
2017-Nov-10 07:30N 47°27' E 019°03'0 0.0
2017-Nov-10 07:00N 47°27' E 019°03'1 1.2
2017-Nov-10 06:30N 47°26' E 019°03'0 0.0
2017-Nov-10 06:01N 47°26' E 019°03'0 0.0
2017-Nov-10 05:31N 47°26' E 019°03'0 0.0
2017-Nov-10 05:01N 47°26' E 019°03'0 0.0
2017-Nov-10 04:30N 47°26' E 019°03'0 0.0
2017-Nov-10 04:00N 47°26' E 019°03'0 0.0
2017-Nov-10 03:27N 47°26' E 019°03'0 0.0
2017-Nov-10 03:00N 47°26' E 019°03'0 0.0
2017-Nov-10 02:31N 47°26' E 019°03'0 0.0
2017-Nov-10 02:00N 47°26' E 019°03'0 0.0
2017-Nov-10 01:29N 47°26' E 019°03'0 0.0
2017-Nov-10 01:00N 47°26' E 019°03'0 0.0
2017-Nov-10 00:30N 47°26' E 019°03'0 0.0
2017-Nov-10 00:00N 47°26' E 019°03'0 0.0
2017-Nov-09 23:30N 47°26' E 019°03'0 0.0
2017-Nov-09 23:01N 47°26' E 019°03'0 0.0
2017-Nov-09 22:30N 47°26' E 019°03'0 0.0
2017-Nov-09 22:00N 47°26' E 019°03'0 0.0
2017-Nov-09 21:31N 47°26' E 019°03'0 0.0
2017-Nov-09 21:01N 47°26' E 019°03'0 0.0
2017-Nov-09 20:30N 47°26' E 019°03'0 0.0
2017-Nov-09 20:01N 47°26' E 019°03'0 0.0
2017-Nov-09 19:31N 47°26' E 019°03'0 0.0
2017-Nov-09 19:01N 47°26' E 019°03'0 0.0
2017-Nov-09 18:31N 47°26' E 019°03'0 0.0
2017-Nov-09 18:01N 47°26' E 019°03'0 0.0
2017-Nov-09 17:31N 47°26' E 019°03'  
Track history (hours):
 
Tides and Currents Weather Stations Pressure Air Temp Water Temp Dewpoint Dewpoint Depression Visibility Wind Speed Wind Dir Waves Ship Positions

Korsika

Last reported at 2017-Nov-19 17:01 UTC. Time now 2017-Nov-22 13:09 UTC.
Position N 48°11' E 016°28'.

Length 80 m; draft 2.3 m.

Type: Ship. MMSI: 207072359.

Date/timePositionNaut miles runAvg speedWind from/ knotsBaromVisibWave heightAir tempDewpointWater temp
2017-Nov-19 17:01N 48°11' E 016°28'0 6.5
2017-Nov-19 17:01N 48°11' E 016°28'13 2.4
2017-Nov-19 11:18N 48°07' E 016°47'3 2.5
2017-Nov-19 10:16N 48°07' E 016°51'1 3.0
2017-Nov-19 09:55N 48°08' E 016°52'1 2.5
2017-Nov-19 09:31N 48°08' E 016°54'1 2.6
2017-Nov-19 08:59N 48°09' E 016°55'1 2.6
2017-Nov-19 08:30N 48°10' E 016°57'1 2.6
2017-Nov-19 08:01N 48°10' E 016°58'1 2.5
2017-Nov-19 07:30N 48°10' E 016°60'1 2.9
2017-Nov-19 07:01N 48°09' E 017°01'1 2.8
2017-Nov-19 06:30N 48°09' E 017°03'2 3.1
2017-Nov-19 06:00N 48°08' E 017°06'2 3.6
2017-Nov-19 05:31N 48°08' E 017°08'2 3.7
2017-Nov-19 05:00N 48°06' E 017°08'2 3.1
2017-Nov-19 04:30N 48°05' E 017°09'0 0.0
2017-Nov-19 04:01N 48°05' E 017°09'0 0.0
2017-Nov-19 03:30N 48°05' E 017°09'0 0.0
2017-Nov-19 03:00N 48°05' E 017°09'0 0.0
2017-Nov-19 02:30N 48°05' E 017°09'0 0.0
2017-Nov-19 02:01N 48°05' E 017°09'0 0.0
2017-Nov-19 01:31N 48°05' E 017°09'0 0.0
2017-Nov-19 01:00N 48°05' E 017°09'0 0.0
2017-Nov-19 00:30N 48°05' E 017°09'0 0.0
2017-Nov-19 00:01N 48°05' E 017°09'0 0.0
2017-Nov-18 23:31N 48°05' E 017°09'0 0.0
2017-Nov-18 23:01N 48°05' E 017°09'0 0.0
2017-Nov-18 22:30N 48°05' E 017°09'0 0.0
2017-Nov-18 22:00N 48°05' E 017°09'0 0.0
2017-Nov-18 21:30N 48°05' E 017°09'0 0.0
2017-Nov-18 21:01N 48°05' E 017°09'0 0.0
2017-Nov-18 20:30N 48°05' E 017°09'0 0.0
2017-Nov-18 20:01N 48°05' E 017°09'0 0.0
2017-Nov-18 19:31N 48°05' E 017°09'0 0.0
2017-Nov-18 19:00N 48°05' E 017°09'0 0.2
2017-Nov-18 18:31N 48°05' E 017°09'3 5.9
2017-Nov-18 18:00N 48°03' E 017°12'3 6.5
2017-Nov-18 17:30N 48°01' E 017°16'3 6.9
2017-Nov-18 17:00N 47°60' E 017°21'4 7.3
2017-Nov-18 16:30N 47°57' E 017°25'4 7.3
2017-Nov-18 16:01N 47°55' E 017°29'3 5.7
2017-Nov-18 15:31N 47°53' E 017°32'0 0.3
2017-Nov-18 14:58N 47°53' E 017°33'2 3.4
2017-Nov-18 14:31N 47°52' E 017°34'1 1.6
2017-Nov-18 14:01N 47°51' E 017°35'2 4.2
2017-Nov-18 13:30N 47°49' E 017°37'3 4.6
2017-Nov-18 12:50N 47°47' E 017°40'59 2.1
2017-Nov-17 08:48N 47°37' E 019°06'2 5.4
2017-Nov-17 08:30N 47°35' E 019°05'2 4.9
2017-Nov-17 08:00N 47°33' E 019°04'2 4.5
2017-Nov-17 07:30N 47°31' E 019°03'2 4.2
2017-Nov-17 07:00N 47°29' E 019°04'2 3.8
2017-Nov-17 06:30N 47°27' E 019°03'2 4.0
2017-Nov-17 06:00N 47°25' E 019°03'2 4.1
2017-Nov-17 05:31N 47°23' E 019°01'2 1.5
2017-Nov-17 04:29N 47°23' E 018°59'0 0.0
2017-Nov-16 16:30N 47°23' E 018°59'0 0.2
2017-Nov-16 15:55N 47°23' E 018°59'2 4.3
2017-Nov-16 15:27N 47°21' E 018°57'2 4.0
2017-Nov-16 15:01N 47°20' E 018°57'3 4.2
2017-Nov-16 14:14N 47°17' E 018°55'  
2017-Nov-14 03:30N 46°00' E 018°41'  
2017-Nov-10 08:43N 47°19' E 018°56'3 9.1
2017-Nov-10 08:25N 47°21' E 018°57'4 8.6
2017-Nov-10 08:01N 47°23' E 019°01'3 6.9
2017-Nov-10 07:30N 47°27' E 019°03'0 0.0
2017-Nov-10 07:00N 47°27' E 019°03'1 1.2
2017-Nov-10 06:30N 47°26' E 019°03'0 0.0
2017-Nov-10 06:01N 47°26' E 019°03'0 0.0
2017-Nov-10 05:31N 47°26' E 019°03'0 0.0
2017-Nov-10 05:01N 47°26' E 019°03'0 0.0
2017-Nov-10 04:30N 47°26' E 019°03'0 0.0
2017-Nov-10 04:00N 47°26' E 019°03'0 0.0
2017-Nov-10 03:27N 47°26' E 019°03'0 0.0
2017-Nov-10 03:00N 47°26' E 019°03'0 0.0
2017-Nov-10 02:31N 47°26' E 019°03'0 0.0
2017-Nov-10 02:00N 47°26' E 019°03'0 0.0
2017-Nov-10 01:29N 47°26' E 019°03'0 0.0
2017-Nov-10 01:00N 47°26' E 019°03'0 0.0
2017-Nov-10 00:30N 47°26' E 019°03'0 0.0
2017-Nov-10 00:00N 47°26' E 019°03'0 0.0
2017-Nov-09 23:30N 47°26' E 019°03'0 0.0
2017-Nov-09 23:01N 47°26' E 019°03'0 0.0
2017-Nov-09 22:30N 47°26' E 019°03'0 0.0
2017-Nov-09 22:00N 47°26' E 019°03'0 0.0
2017-Nov-09 21:31N 47°26' E 019°03'0 0.0
2017-Nov-09 21:01N 47°26' E 019°03'0 0.0
2017-Nov-09 20:30N 47°26' E 019°03'0 0.0
2017-Nov-09 20:01N 47°26' E 019°03'0 0.0
2017-Nov-09 19:31N 47°26' E 019°03'0 0.0
2017-Nov-09 19:01N 47°26' E 019°03'0 0.0
2017-Nov-09 18:31N 47°26' E 019°03'0 0.0
2017-Nov-09 18:01N 47°26' E 019°03'0 0.0
2017-Nov-09 17:31N 47°26' E 019°03'  

Dump ship's entire track history